Time;durP1;ratioP1;P1;durP2;ratioP2;P2;SDS_P1;SDS_P2;PMS_P1;PMS_P2;Temp;Humidity;BMP_temperature;BMP_pressure;BME280_temperature;BME280_humidity;BME280_pressure;Samples;Min_cycle;Max_cycle;Signal;HPM_P1;HPM_P2
2021/03/10 00:01:53;;;;;;;45.40;24.60;;;;;;;5.82;80.99;100628.19;5061128;28;20068;-83
2021/03/10 00:04:20;;;;;;;40.83;22.88;;;;;;;5.88;81.17;100629.78;5059432;28;20117;-82
2021/03/10 00:15:02;;;;;;;41.75;22.88;;;;;;;5.91;80.96;100633.22;5051882;28;20060;-83
2021/03/10 00:17:48;;;;;;;42.90;24.17;;;;;;;5.93;80.71;100639.31;5058622;28;20080;-83
2021/03/10 00:35:34;;;;;;;43.63;25.40;;;;;;;5.85;80.71;100649.09;5012973;28;20044;-81
2021/03/10 00:42:24;;;;;;;45.47;24.73;;;;;;;5.77;81.73;100653.69;5057692;28;19967;-81
2021/03/10 00:49:12;;;;;;;45.03;25.27;;;;;;;5.69;81.86;100654.75;5056306;28;20040;-81
2021/03/10 00:55:29;;;;;;;42.17;24.00;;;;;;;5.70;81.89;100649.47;5051882;28;20053;-83
2021/03/10 01:01:44;;;;;;;42.80;23.02;;;;;;;5.75;81.36;100647.59;5049535;28;20060;-83
2021/03/10 01:04:15;;;;;;;45.22;25.42;;;;;;;5.73;81.52;100638.03;5053353;28;20117;-83
2021/03/10 01:11:10;;;;;;;50.38;27.17;;;;;;;5.67;81.29;100641.63;5048978;28;20048;-85
2021/03/10 01:13:40;;;;;;;47.13;25.58;;;;;;;5.67;81.95;100646.91;5030814;28;20059;-86
2021/03/10 01:16:46;;;;;;;41.83;24.13;;;;;;;5.74;81.43;100652.88;5027824;28;20054;-83
2021/03/10 01:19:13;;;;;;;43.92;24.23;;;;;;;5.78;81.49;100659.81;5035517;28;20054;-84
2021/03/10 01:22:30;;;;;;;43.83;25.15;;;;;;;5.81;81.27;100654.50;5007850;28;20073;-83
2021/03/10 01:24:56;;;;;;;43.83;25.08;;;;;;;5.81;81.19;100641.34;5034394;28;20055;-84
2021/03/10 01:31:00;;;;;;;46.65;26.13;;;;;;;5.84;80.63;100638.63;5044511;28;20061;-84
2021/03/10 01:33:27;;;;;;;43.92;25.05;;;;;;;5.83;80.67;100640.38;5043724;28;20064;-84
2021/03/10 01:36:09;;;;;;;44.60;25.15;;;;;;;5.80;80.21;100632.59;5024591;28;20057;-83
2021/03/10 01:39:27;;;;;;;42.58;25.30;;;;;;;5.80;79.81;100627.34;5027415;28;20049;-84
2021/03/10 01:42:17;;;;;;;45.30;25.38;;;;;;;5.79;80.19;100627.38;5027068;28;20045;-84
2021/03/10 01:48:42;;;;;;;44.38;25.55;;;;;;;5.80;80.11;100616.84;5048113;28;20064;-84
2021/03/10 01:51:36;;;;;;;43.70;24.50;;;;;;;5.82;79.51;100622.06;5040124;28;20064;-82
2021/03/10 01:54:27;;;;;;;46.92;27.17;;;;;;;5.77;79.73;100616.91;5055155;28;20045;-81
2021/03/10 01:57:29;;;;;;;45.30;27.17;;;;;;;5.73;79.99;100620.50;5058288;28;20071;-81
2021/03/10 02:00:21;;;;;;;46.15;25.92;;;;;;;5.69;80.06;100613.56;5058412;28;20109;-81
2021/03/10 02:03:29;;;;;;;45.50;26.70;;;;;;;5.72;80.25;100610.88;5036575;28;20075;-82
2021/03/10 02:10:19;;;;;;;44.22;25.10;;;;;;;5.69;80.50;100634.59;5043719;28;20075;-83
2021/03/10 02:13:52;;;;;;;45.13;24.45;;;;;;;5.65;81.05;100627.72;5044988;28;20056;-84
2021/03/10 02:16:54;;;;;;;44.75;24.48;;;;;;;5.59;80.85;100644.47;5043257;28;20536;-83
2021/03/10 02:30:37;;;;;;;48.55;25.75;;;;;;;5.45;81.74;100650.91;5024008;28;20057;-82
2021/03/10 02:33:34;;;;;;;46.13;24.80;;;;;;;5.50;81.57;100649.06;5028101;28;20057;-82
2021/03/10 02:36:32;;;;;;;44.15;24.48;;;;;;;5.66;80.19;100657.47;5037427;28;20030;-83
2021/03/10 02:43:06;;;;;;;44.67;25.15;;;;;;;5.67;79.83;100661.81;5036191;28;20048;-83
2021/03/10 02:50:22;;;;;;;41.28;24.55;;;;;;;5.71;79.33;100651.19;5033270;28;20053;-83
2021/03/10 02:57:17;;;;;;;42.55;24.15;;;;;;;5.73;79.31;100648.53;5024236;28;20106;-83
2021/03/10 03:00:12;;;;;;;44.15;23.73;;;;;;;5.66;79.54;100645.19;5022948;28;20080;-82
2021/03/10 03:03:11;;;;;;;41.38;23.80;;;;;;;5.68;79.90;100653.88;5036013;28;20080;-82
2021/03/10 03:09:52;;;;;;;39.83;23.17;;;;;;;5.65;79.85;100648.72;5035780;28;20073;-83
2021/03/10 03:12:19;;;;;;;41.30;24.30;;;;;;;5.71;79.14;100651.19;5054030;28;20125;-83
2021/03/10 03:14:46;;;;;;;39.88;22.73;;;;;;;5.71;79.15;100656.44;5038505;28;20042;-83
2021/03/10 03:17:55;;;;;;;38.92;23.50;;;;;;;5.74;78.50;100653.75;5054887;28;20068;-82
2021/03/10 03:20:25;;;;;;;36.38;22.35;;;;;;;5.75;78.69;100660.75;5044717;28;20053;-83
2021/03/10 03:22:59;;;;;;;37.65;22.08;;;;;;;5.75;78.42;100660.75;5034919;28;20053;-83
2021/03/10 03:25:29;;;;;;;35.17;21.80;;;;;;;5.77;78.36;100655.44;5031505;28;20081;-83
2021/03/10 03:28:01;;;;;;;32.72;20.83;;;;;;;5.81;78.07;100660.59;5043955;28;20088;-82
2021/03/10 03:30:36;;;;;;;37.30;21.92;;;;;;;5.77;77.10;100645.81;5043614;28;20055;-83
2021/03/10 03:33:14;;;;;;;32.20;20.80;;;;;;;5.77;77.59;100648.44;5031857;28;20053;-85
2021/03/10 03:35:44;;;;;;;34.67;21.20;;;;;;;5.80;76.71;100644.88;5036518;28;20053;-82
2021/03/10 03:38:11;;;;;;;32.65;21.45;;;;;;;5.86;76.70;100637.69;5050604;28;20080;-83
2021/03/10 03:40:38;;;;;;;35.53;21.25;;;;;;;5.90;75.96;100644.66;5051282;28;20050;-83
2021/03/10 03:43:11;;;;;;;30.80;20.38;;;;;;;5.86;76.64;100648.19;5034000;28;20068;-84
2021/03/10 03:49:05;;;;;;;29.10;18.33;;;;;;;5.98;75.29;100640.06;5048470;28;20412;-83
2021/03/10 03:51:32;;;;;;;29.77;19.23;;;;;;;5.95;75.92;100640.16;5041156;28;20061;-83
2021/03/10 03:54:01;;;;;;;29.85;19.30;;;;;;;5.93;75.97;100644.56;5022686;28;20064;-82
2021/03/10 03:56:28;;;;;;;29.50;19.08;;;;;;;5.94;75.53;100646.31;5018261;28;20489;-83
2021/03/10 03:58:55;;;;;;;28.27;18.90;;;;;;;5.90;76.06;100649.91;5020631;28;20053;-82
2021/03/10 04:01:21;;;;;;;27.73;19.08;;;;;;;5.89;75.74;100656.06;5038289;28;20412;-83
2021/03/10 04:03:54;;;;;;;27.50;18.70;;;;;;;5.95;75.68;100644.53;5023955;28;20053;-83
2021/03/10 04:06:20;;;;;;;28.70;18.55;;;;;;;6.03;75.06;100660.13;5022603;28;20045;-84
2021/03/10 04:08:47;;;;;;;31.35;18.90;;;;;;;6.03;74.87;100660.13;5032189;28;20059;-83
2021/03/10 04:11:15;;;;;;;30.67;20.10;;;;;;;5.99;74.98;100659.31;5038165;28;20057;-84
2021/03/10 04:13:41;;;;;;;29.20;19.35;;;;;;;5.97;75.15;100656.75;5038997;28;20049;-83
2021/03/10 04:16:46;;;;;;;29.30;18.45;;;;;;;5.93;75.60;100649.84;5019651;28;20401;-83
2021/03/10 04:19:15;;;;;;;29.73;18.88;;;;;;;5.92;75.25;100657.75;5029586;28;20054;-82
2021/03/10 04:21:41;;;;;;;33.90;20.13;;;;;;;5.99;74.78;100667.19;5020548;28;20052;-83
2021/03/10 04:24:08;;;;;;;29.55;19.33;;;;;;;5.98;75.46;100668.97;5022745;28;20125;-84
2021/03/10 04:26:34;;;;;;;27.77;19.55;;;;;;;5.95;75.06;100665.56;5040782;28;20407;-82
2021/03/10 04:29:03;;;;;;;28.48;19.10;;;;;;;5.95;75.23;100658.56;5039483;28;20045;-82
2021/03/10 04:31:48;;;;;;;29.45;19.85;;;;;;;5.96;75.12;100662.91;5025270;28;20117;-85
2021/03/10 04:34:15;;;;;;;27.70;18.48;;;;;;;5.95;75.07;100665.56;5047133;28;20045;-85
2021/03/10 04:36:42;;;;;;;29.50;19.15;;;;;;;5.87;75.12;100663.06;5046818;28;20053;-84
2021/03/10 04:39:08;;;;;;;28.33;18.95;;;;;;;5.90;75.35;100665.66;5044092;28;20153;-84
2021/03/10 04:41:36;;;;;;;26.85;17.85;;;;;;;5.90;74.67;100670.94;5026322;28;20080;-83
2021/03/10 04:44:19;;;;;;;31.52;19.83;;;;;;;5.89;74.73;100663.94;5021835;28;20056;-83
2021/03/10 04:46:49;;;;;;;27.83;18.02;;;;;;;5.93;74.90;100670.84;5033985;28;20129;-83
2021/03/10 04:49:39;;;;;;;29.08;19.23;;;;;;;5.95;74.63;100674.31;5044255;28;20041;-84
2021/03/10 04:52:07;;;;;;;29.13;18.67;;;;;;;5.94;75.32;100674.34;5027016;28;20064;-84
2021/03/10 04:54:53;;;;;;;27.13;17.85;;;;;;;5.95;75.06;100676.94;5024936;28;20058;-84
2021/03/10 04:57:24;;;;;;;26.83;17.55;;;;;;;5.88;75.35;100672.72;5043495;28;20057;-83
2021/03/10 04:59:50;;;;;;;27.38;18.73;;;;;;;5.86;75.45;100676.25;5041794;28;20052;-83
2021/03/10 05:02:53;;;;;;;27.70;18.17;;;;;;;5.86;75.54;100679.75;5025633;28;20095;-83
2021/03/10 05:05:19;;;;;;;26.35;18.05;;;;;;;5.85;75.55;100679.78;5025160;28;20064;-85
2021/03/10 05:15:14;;;;;;;29.85;18.33;;;;;;;5.77;75.82;100695.72;5023579;28;20148;-84
2021/03/10 05:17:42;;;;;;;28.77;18.70;;;;;;;5.79;75.30;100688.69;5033054;28;20060;-84
2021/03/10 05:20:11;;;;;;;29.15;18.70;;;;;;;5.86;75.06;100695.50;5045637;28;20405;-84
2021/03/10 05:22:40;;;;;;;26.55;18.92;;;;;;;5.82;75.82;100693.88;5030057;28;20140;-82
2021/03/10 05:25:09;;;;;;;27.70;19.02;;;;;;;5.86;75.56;100702.53;5044965;28;20132;-84
2021/03/10 05:31:08;;;;;;;28.13;19.00;;;;;;;5.88;75.37;100704.25;5043414;28;20361;-85
2021/03/10 05:33:46;;;;;;;25.67;17.50;;;;;;;5.95;75.04;100705.00;5039469;28;20434;-83
2021/03/10 05:36:15;;;;;;;26.98;17.75;;;;;;;5.94;74.32;100709.38;5025670;28;20499;-82
2021/03/10 05:38:45;;;;;;;26.65;18.23;;;;;;;5.89;74.53;100711.25;5012840;28;20045;-84
2021/03/10 05:41:11;;;;;;;25.50;17.85;;;;;;;5.87;74.57;100705.13;5011822;28;20109;-84
2021/03/10 05:43:44;;;;;;;26.08;17.02;;;;;;;5.85;74.93;100709.53;5043796;28;20152;-83
2021/03/10 05:46:13;;;;;;;27.67;17.65;;;;;;;5.88;74.96;100703.38;5029946;28;20088;-83
2021/03/10 05:48:40;;;;;;;26.63;16.52;;;;;;;5.87;74.41;100706.88;5031472;28;20053;-83
2021/03/10 05:51:20;;;;;;;27.23;17.83;;;;;;;5.84;74.55;100706.94;5030726;28;20493;-83
2021/03/10 05:53:49;;;;;;;25.42;17.65;;;;;;;5.83;74.45;100694.72;5050124;28;20049;-84
2021/03/10 06:04:24;;;;;;;26.15;17.13;;;;;;;5.75;74.32;100713.28;5026784;28;20475;-82
2021/03/10 06:07:39;;;;;;;26.15;17.10;;;;;;;5.72;74.49;100708.09;5033901;28;20139;-82
2021/03/10 06:10:08;;;;;;;24.45;16.55;;;;;;;5.71;73.92;100703.75;5054687;28;20143;-83
2021/03/10 06:12:43;;;;;;;27.85;17.58;;;;;;;5.68;74.49;100709.06;5029436;28;20101;-83
2021/03/10 06:15:13;;;;;;;25.02;16.35;;;;;;;5.67;74.85;100707.31;5045877;28;20053;-84
2021/03/10 06:17:41;;;;;;;25.08;17.17;;;;;;;5.71;74.21;100709.00;5048717;28;20042;-83
2021/03/10 06:20:09;;;;;;;27.75;17.38;;;;;;;5.75;74.86;100718.56;5037062;28;20047;-84
2021/03/10 06:22:39;;;;;;;25.48;17.08;;;;;;;5.79;74.53;100720.22;5030546;28;20041;-83
2021/03/10 06:28:41;;;;;;;28.00;17.90;;;;;;;5.87;74.58;100728.78;5045838;28;20170;-83
2021/03/10 06:31:21;;;;;;;29.73;17.75;;;;;;;5.89;74.38;100718.25;5036326;28;20152;-83
2021/03/10 06:34:01;;;;;;;27.88;18.08;;;;;;;5.92;74.84;100726.09;5035631;28;20053;-82
2021/03/10 06:36:36;;;;;;;32.10;19.27;;;;;;;5.96;74.53;100723.38;4989515;28;20098;-83
2021/03/10 06:39:07;;;;;;;30.42;17.88;;;;;;;6.06;73.73;100725.78;4989976;28;20082;-82
2021/03/10 06:42:02;;;;;;;29.08;18.70;;;;;;;6.10;74.24;100730.06;4978235;28;20141;-83
2021/03/10 06:44:30;;;;;;;27.27;18.02;;;;;;;6.20;73.99;100727.16;4995151;28;20059;-81
2021/03/10 06:46:56;;;;;;;26.20;16.67;;;;;;;6.31;73.35;100732.16;4993233;28;20057;-83
2021/03/10 06:49:25;;;;;;;30.92;18.85;;;;;;;6.42;72.55;100732.78;4989990;28;20058;-81
2021/03/10 06:52:08;;;;;;;27.58;16.52;;;;;;;6.48;72.37;100731.75;5001988;28;20074;-86
2021/03/10 06:54:35;;;;;;;30.63;17.25;;;;;;;6.46;72.02;100729.16;5018853;28;20088;-82
2021/03/10 06:57:08;;;;;;;25.88;16.40;;;;;;;6.60;71.37;100742.88;5033927;28;20075;-83
2021/03/10 06:59:57;;;;;;;28.58;16.00;;;;;;;6.68;71.53;100740.88;5047181;28;20037;-84
2021/03/10 07:02:31;;;;;;;23.65;16.10;;;;;;;6.76;71.32;100747.75;5050214;28;20036;-88
2021/03/10 07:04:59;;;;;;;25.92;16.35;;;;;;;6.86;70.37;100746.59;5056121;28;20038;-83
2021/03/10 07:07:28;;;;;;;27.40;16.55;;;;;;;6.88;70.61;100750.91;5053509;28;20120;-81
2021/03/10 07:09:55;;;;;;;26.23;16.20;;;;;;;6.93;70.37;100750.75;5034139;28;20045;-84
2021/03/10 07:12:25;;;;;;;25.42;16.48;;;;;;;6.97;70.34;100760.31;5035155;28;20084;-82
2021/03/10 07:14:52;;;;;;;25.65;16.45;;;;;;;6.99;69.90;100750.63;5031123;28;20045;-83
2021/03/10 07:17:23;;;;;;;24.92;16.48;;;;;;;7.04;69.47;100759.25;5039308;28;20053;-83
2021/03/10 07:19:50;;;;;;;28.58;16.25;;;;;;;7.07;69.55;100764.47;5039781;28;20045;-82
2021/03/10 07:22:23;;;;;;;28.38;17.27;;;;;;;7.04;70.29;100762.75;5039386;28;20049;-82
2021/03/10 07:25:20;;;;;;;27.95;16.55;;;;;;;7.14;73.55;100758.09;5037025;28;20076;-81
2021/03/10 07:27:53;;;;;;;31.23;17.90;;;;;;;7.14;71.03;100768.63;5000011;28;20076;-82
2021/03/10 07:30:34;;;;;;;26.83;17.30;;;;;;;7.03;71.23;100757.53;5040118;28;20744;-80
2021/03/10 07:33:12;;;;;;;27.58;17.88;;;;;;;7.07;71.17;100764.47;5039720;28;20050;-82
2021/03/10 07:36:01;;;;;;;27.83;17.10;;;;;;;7.16;70.19;100776.50;5019530;28;20041;-83
2021/03/10 07:38:33;;;;;;;29.45;16.90;;;;;;;7.18;70.01;100762.38;5041524;28;20073;-81
2021/03/10 07:41:12;;;;;;;29.13;17.75;;;;;;;7.25;70.38;100773.59;5044150;28;20084;-86
2021/03/10 07:43:47;;;;;;;28.77;17.85;;;;;;;7.30;70.06;100767.31;5033423;28;20056;-83
2021/03/10 07:46:24;;;;;;;32.13;18.08;;;;;;;7.36;70.16;100775.06;5034028;28;20049;-80
2021/03/10 07:48:53;;;;;;;29.35;17.55;;;;;;;7.39;69.25;100782.88;5034970;28;20076;-83
2021/03/10 07:51:30;;;;;;;28.13;17.05;;;;;;;7.44;69.77;100779.22;5019773;28;20120;-85
2021/03/10 07:54:01;;;;;;;30.98;17.38;;;;;;;7.49;68.83;100779.97;5024932;28;20059;-84
2021/03/10 07:56:32;;;;;;;25.25;16.33;;;;;;;7.55;68.30;100788.59;5039189;28;20060;-84
2021/03/10 07:59:18;;;;;;;29.85;17.55;;;;;;;7.62;67.79;100782.22;5022244;28;20154;-84
2021/03/10 08:01:47;;;;;;;25.23;15.38;;;;;;;7.66;66.71;100783.88;5036721;28;20667;-83
2021/03/10 08:04:16;;;;;;;27.10;16.35;;;;;;;7.74;66.42;100797.66;5037226;28;20065;-83
2021/03/10 08:06:47;;;;;;;24.00;15.45;;;;;;;7.75;66.22;100796.75;5024132;28;20049;-81
2021/03/10 08:09:16;;;;;;;28.50;16.60;;;;;;;7.75;66.33;100795.91;5043423;28;20084;-86
2021/03/10 08:11:43;;;;;;;25.73;16.70;;;;;;;7.78;66.81;100790.53;5041169;28;20136;-82
2021/03/10 08:14:11;;;;;;;27.05;16.17;;;;;;;7.84;65.73;100790.38;5043092;28;20076;-83
2021/03/10 08:16:49;;;;;;;24.83;14.73;;;;;;;7.83;65.57;100796.56;5038405;28;20049;-83
2021/03/10 08:19:20;;;;;;;26.45;15.05;;;;;;;7.81;65.36;100795.75;5046255;28;20045;-86
2021/03/10 08:21:55;;;;;;;26.50;15.90;;;;;;;7.83;66.13;100804.47;5040755;28;20105;-82
2021/03/10 08:24:23;;;;;;;24.40;14.90;;;;;;;7.87;64.60;100797.34;5048765;28;20136;-81
2021/03/10 08:27:08;;;;;;;23.55;15.18;;;;;;;7.92;64.20;100793.63;5048790;28;20045;-83
2021/03/10 08:29:35;;;;;;;25.73;16.15;;;;;;;7.91;64.73;100797.19;5036117;28;20174;-85
2021/03/10 08:32:03;;;;;;;29.75;17.48;;;;;;;7.93;65.65;100803.28;5050591;28;20049;-83
2021/03/10 08:34:30;;;;;;;30.15;17.08;;;;;;;8.06;65.71;100802.00;5052353;28;20109;-85
2021/03/10 08:36:57;;;;;;;27.42;17.15;;;;;;;8.15;65.27;100806.16;5057270;28;20117;-83
2021/03/10 08:39:25;;;;;;;29.15;17.98;;;;;;;8.24;65.50;100813.75;5056392;28;20057;-86
2021/03/10 08:41:54;;;;;;;29.63;17.10;;;;;;;8.31;65.39;100810.03;5039268;28;20105;-85
2021/03/10 08:44:22;;;;;;;28.83;17.60;;;;;;;8.29;65.71;100805.72;5045236;28;20056;-84
2021/03/10 08:46:51;;;;;;;29.48;17.60;;;;;;;8.29;65.92;100805.72;5056045;28;20107;-80
2021/03/10 08:49:30;;;;;;;31.77;18.40;;;;;;;8.38;65.91;100813.38;5039630;28;20108;-81
2021/03/10 08:52:16;;;;;;;30.90;19.20;;;;;;;8.53;65.79;100810.25;5056853;28;20050;-80
2021/03/10 08:54:59;;;;;;;32.97;19.75;;;;;;;8.63;65.09;100811.69;5041182;28;20058;-81
2021/03/10 08:57:28;;;;;;;29.73;19.58;;;;;;;8.74;64.04;100801.63;5045560;28;20132;-84
2021/03/10 08:59:56;;;;;;;29.10;18.25;;;;;;;8.76;64.30;100797.19;5019999;28;20064;-81
2021/03/10 09:02:26;;;;;;;29.05;18.05;;;;;;;8.82;63.41;100784.66;5027399;28;20057;-81
2021/03/10 09:04:53;;;;;;;;;;;;;;;8.79;63.75;100798.84;5049984;28;20037;-81
2021/03/10 09:07:22;;;;;;;29.42;17.30;;;;;;;8.82;64.26;100797.88;5031467;28;19997;-81
2021/03/10 09:09:57;;;;;;;27.42;18.08;;;;;;;8.76;63.48;100786.63;5054582;28;20117;-82
2021/03/10 09:12:25;;;;;;;29.90;19.10;;;;;;;8.76;63.30;100793.66;5051967;28;20057;-83
2021/03/10 09:14:52;;;;;;;31.88;18.70;;;;;;;8.81;63.63;100789.13;5037010;28;20380;-83
2021/03/10 09:17:31;;;;;;;33.45;19.50;;;;;;;8.87;62.96;100788.03;5051252;28;20060;-84
2021/03/10 09:20:02;;;;;;;26.45;17.02;;;;;;;8.93;62.29;100786.06;5047704;28;20084;-84
2021/03/10 09:22:54;;;;;;;28.42;18.17;;;;;;;9.12;62.22;100788.94;5038042;28;20114;-82
2021/03/10 09:25:22;;;;;;;32.35;17.95;;;;;;;9.32;61.06;100782.91;5037992;28;20068;-80
2021/03/10 09:28:00;;;;;;;30.73;18.00;;;;;;;9.46;60.68;100792.06;5034347;28;20068;-78
2021/03/10 09:30:29;;;;;;;28.67;17.35;;;;;;;9.53;59.64;100797.16;5043055;28;20080;-82
2021/03/10 09:32:56;;;;;;;28.63;17.55;;;;;;;9.64;59.72;100801.13;5041169;28;20081;-83
2021/03/10 09:35:29;;;;;;;28.92;17.83;;;;;;;9.71;59.55;100804.41;5024893;28;20081;-81
2021/03/10 09:38:03;;;;;;;30.73;17.98;;;;;;;9.83;59.18;100801.31;5032261;28;20121;-80
2021/03/10 09:40:34;;;;;;;30.05;18.10;;;;;;;9.91;58.51;100799.25;5048373;28;20053;-83
2021/03/10 09:43:28;;;;;;;28.65;17.27;;;;;;;9.91;58.83;100791.31;5051983;28;20045;-83
2021/03/10 09:46:03;;;;;;;31.48;19.45;;;;;;;9.93;58.23;100793.88;5042800;28;20104;-83
2021/03/10 09:53:22;;;;;;;31.25;18.30;;;;;;;9.91;58.27;100793.09;5042656;28;20064;-82
2021/03/10 09:56:50;;;;;;;29.95;18.40;;;;;;;9.98;58.55;100784.88;5043216;28;20052;-82
2021/03/10 09:59:18;;;;;;;29.20;17.88;;;;;;;9.97;58.19;100783.13;5025020;28;20119;-83
2021/03/10 10:01:46;;;;;;;29.77;17.88;;;;;;;9.71;58.13;100764.75;5024572;28;20144;-82
2021/03/10 10:04:13;;;;;;;29.65;18.45;;;;;;;9.68;58.57;100783.38;5020824;28;20073;-82
2021/03/10 10:07:12;;;;;;;28.95;17.92;;;;;;;9.60;58.79;100781.00;5027950;28;20201;-82
2021/03/10 10:10:04;;;;;;;29.98;17.83;;;;;;;9.46;59.38;100773.56;5028676;28;20057;-83
2021/03/10 10:12:52;;;;;;;30.65;19.15;;;;;;;9.54;59.61;100775.94;5040696;28;20053;-83
2021/03/10 10:15:26;;;;;;;32.47;19.05;;;;;;;9.65;59.71;100773.78;5041547;28;20053;-83
2021/03/10 10:22:01;;;;;;;34.15;19.58;;;;;;;9.69;59.46;100782.47;5045416;28;19963;-82
2021/03/10 10:29:12;;;;;;;32.15;18.45;;;;;;;9.45;59.72;100765.69;5038690;28;20127;-83
2021/03/10 10:32:29;;;;;;;31.73;17.48;;;;;;;9.33;60.00;100764.38;5043348;28;20054;-80
2021/03/10 10:36:10;;;;;;;31.00;18.33;;;;;;;9.31;59.61;100766.19;5035931;28;20056;-83
2021/03/10 10:39:04;;;;;;;29.88;18.15;;;;;;;9.38;60.08;100756.28;5034283;28;20096;-83
2021/03/10 10:41:31;;;;;;;36.07;20.47;;;;;;;9.31;59.99;100754.75;5021105;28;20057;-83
2021/03/10 10:44:00;;;;;;;31.30;18.90;;;;;;;9.28;59.75;100754.91;5021678;28;20050;-83
2021/03/10 10:46:30;;;;;;;33.50;19.40;;;;;;;9.32;60.08;100762.63;5005780;28;20057;-84
2021/03/10 10:49:01;;;;;;;33.35;19.58;;;;;;;9.33;59.92;100758.22;5034783;28;20049;-85
2021/03/10 10:51:29;;;;;;;32.97;19.77;;;;;;;9.42;60.24;100753.47;5022072;28;20062;-83
2021/03/10 10:53:57;;;;;;;35.30;20.70;;;;;;;9.71;59.48;100755.03;5046209;28;20468;-83
2021/03/10 10:56:23;;;;;;;36.05;21.20;;;;;;;9.89;59.20;100753.47;5040230;28;20053;-84
2021/03/10 10:59:00;;;;;;;35.00;21.23;;;;;;;9.94;59.14;100748.84;5028288;28;20084;-85
2021/03/10 11:01:27;;;;;;;36.38;20.75;;;;;;;9.93;58.90;100744.47;5033829;28;20054;-84
2021/03/10 11:03:55;;;;;;;33.92;21.55;;;;;;;10.02;58.59;100749.44;5041472;28;20053;-88
2021/03/10 11:06:22;;;;;;;34.78;21.23;;;;;;;10.10;58.44;100751.75;5050496;28;20061;-81
2021/03/10 11:08:51;;;;;;;34.55;20.27;;;;;;;10.16;57.93;100746.25;5027220;28;20168;-83
2021/03/10 11:11:17;;;;;;;33.72;19.70;;;;;;;10.30;57.62;100746.59;5040226;28;20232;-83
2021/03/10 11:13:53;;;;;;;33.35;20.17;;;;;;;10.40;57.07;100747.06;5032743;28;20117;-83
2021/03/10 11:16:19;;;;;;;34.10;20.30;;;;;;;10.32;57.53;100746.53;5048365;28;20053;-84
2021/03/10 11:18:46;;;;;;;33.85;20.27;;;;;;;10.41;57.22;100740.84;5052815;28;20112;-87
2021/03/10 11:21:12;;;;;;;34.42;20.60;;;;;;;10.46;56.85;100741.53;5052925;28;20049;-87
2021/03/10 11:23:39;;;;;;;33.67;20.25;;;;;;;10.35;57.10;100736.69;5039309;28;20044;-83
2021/03/10 11:26:07;;;;;;;35.13;20.75;;;;;;;10.29;56.79;100742.22;5037017;28;20497;-84
2021/03/10 11:28:34;;;;;;;31.02;19.48;;;;;;;10.36;57.36;100735.75;5003839;28;20045;-85
2021/03/10 11:31:01;;;;;;;31.73;19.58;;;;;;;10.57;57.36;100731.34;5039926;28;20045;-85
2021/03/10 11:33:28;;;;;;;31.05;19.80;;;;;;;10.71;56.52;100728.97;5025388;28;20053;-87
2021/03/10 11:35:55;;;;;;;33.53;20.70;;;;;;;10.89;55.67;100728.19;5048355;28;20057;-87
2021/03/10 11:38:32;;;;;;;34.42;21.45;;;;;;;10.90;55.70;100735.22;5037459;28;20071;-85
2021/03/10 11:40:59;;;;;;;33.92;21.92;;;;;;;10.93;55.35;100722.78;5048233;28;20144;-85
2021/03/10 11:43:27;;;;;;;34.20;21.65;;;;;;;10.85;55.74;100721.34;5031007;28;20081;-85
2021/03/10 11:46:07;;;;;;;32.70;20.80;;;;;;;10.95;55.78;100716.50;5062280;28;20067;-84
2021/03/10 11:48:33;;;;;;;35.13;20.10;;;;;;;11.04;56.02;100726.69;5056653;28;20058;-82
2021/03/10 11:51:00;;;;;;;35.75;21.35;;;;;;;11.16;56.03;100722.66;5030705;28;20065;-84
2021/03/10 11:53:28;;;;;;;33.63;19.77;;;;;;;11.25;55.05;100714.28;5052113;28;20053;-83
2021/03/10 11:55:54;;;;;;;33.90;20.65;;;;;;;11.23;55.56;100716.13;5033634;28;20147;-84
2021/03/10 11:58:22;;;;;;;34.80;21.67;;;;;;;11.25;54.78;100715.13;5030392;28;20207;-84
2021/03/10 12:00:49;;;;;;;32.72;20.80;;;;;;;11.29;54.53;100717.66;5025636;28;20052;-85
2021/03/10 12:03:15;;;;;;;30.45;18.85;;;;;;;11.31;55.13;100714.03;5029882;28;20107;-87
2021/03/10 12:05:58;;;;;;;30.17;20.02;;;;;;;11.49;54.55;100707.03;5032208;28;20133;-83
2021/03/10 12:08:26;;;;;;;31.33;19.80;;;;;;;11.60;53.74;100710.03;5050756;28;20053;-86
2021/03/10 12:10:56;;;;;;;32.00;20.50;;;;;;;11.58;53.36;100703.94;5037887;28;20061;-84
2021/03/10 12:13:25;;;;;;;27.70;17.80;;;;;;;11.44;53.57;100701.91;5058600;28;20057;-84
2021/03/10 12:15:55;;;;;;;30.80;20.50;;;;;;;11.41;53.76;100690.59;5052162;28;20114;-84
2021/03/10 12:18:38;;;;;;;33.60;20.15;;;;;;;11.48;54.19;100695.56;5035141;28;20045;-86
2021/03/10 12:21:12;;;;;;;33.40;20.42;;;;;;;11.55;52.95;100683.72;5018374;28;20053;-82
2021/03/10 12:24:06;;;;;;;31.52;19.73;;;;;;;11.56;53.31;100680.13;5039148;28;20436;-82
2021/03/10 12:26:37;;;;;;;31.38;19.58;;;;;;;11.58;53.55;100677.41;5034590;28;20061;-84
2021/03/10 12:29:09;;;;;;;31.80;19.77;;;;;;;11.69;53.29;100660.97;5014182;28;20206;-84
2021/03/10 12:31:37;;;;;;;29.42;18.83;;;;;;;11.75;52.79;100656.25;5015890;28;20133;-84
2021/03/10 12:34:05;;;;;;;28.52;18.67;;;;;;;11.87;52.49;100662.78;5014768;28;20105;-86
2021/03/10 12:36:32;;;;;;;31.95;18.52;;;;;;;11.79;52.53;100657.00;5033257;28;20535;-83
2021/03/10 12:39:01;;;;;;;31.48;19.02;;;;;;;11.85;52.64;100660.22;5005262;28;20078;-85
2021/03/10 12:41:28;;;;;;;30.48;18.77;;;;;;;11.92;53.04;100650.19;5019215;28;20038;-83
2021/03/10 12:43:56;;;;;;;27.83;18.48;;;;;;;12.03;51.28;100647.84;5016603;28;20095;-84
2021/03/10 12:46:26;;;;;;;29.70;18.65;;;;;;;12.10;50.94;100657.25;5018832;28;20053;-85
2021/03/10 12:48:54;;;;;;;28.38;17.83;;;;;;;12.08;51.52;100652.94;5034697;28;20457;-86
2021/03/10 12:51:22;;;;;;;27.25;18.23;;;;;;;12.12;51.13;100650.03;5041024;28;20053;-83
2021/03/10 12:53:49;;;;;;;30.58;17.50;;;;;;;12.22;51.45;100642.50;5023927;28;20788;-84
2021/03/10 12:56:18;;;;;;;28.75;17.95;;;;;;;12.32;50.78;100629.63;5046309;28;20061;-84
2021/03/10 12:58:45;;;;;;;28.48;17.83;;;;;;;12.36;50.78;100615.25;5031476;28;20088;-85
2021/03/10 13:01:14;;;;;;;28.60;18.55;;;;;;;12.40;50.13;100608.84;5032368;28;20073;-84
2021/03/10 13:03:41;;;;;;;29.40;18.70;;;;;;;12.44;49.79;100611.25;5045202;28;20060;-85
2021/03/10 13:06:10;;;;;;;25.42;17.63;;;;;;;12.44;49.97;100613.91;5046650;28;20111;-85
2021/03/10 13:08:36;;;;;;;26.73;17.58;;;;;;;12.47;49.39;100603.13;5045017;28;20068;-85
2021/03/10 13:11:05;;;;;;;27.60;17.83;;;;;;;12.39;49.26;100601.81;5043921;28;20423;-88
2021/03/10 13:13:34;;;;;;;30.23;18.33;;;;;;;12.26;49.56;100597.16;5017815;28;20424;-85
2021/03/10 13:16:01;;;;;;;28.27;18.42;;;;;;;12.20;50.82;100599.22;5018266;28;20399;-85
2021/03/10 13:18:28;;;;;;;28.55;18.13;;;;;;;12.25;50.05;100597.22;5027709;28;20073;-88
2021/03/10 13:20:57;;;;;;;26.88;17.20;;;;;;;12.16;50.08;100598.53;5025722;28;20122;-84
2021/03/10 13:23:24;;;;;;;29.17;17.58;;;;;;;12.05;49.31;100592.91;5029903;28;20053;-85
2021/03/10 13:25:52;;;;;;;26.17;16.98;;;;;;;11.85;49.90;100585.91;5055297;28;20054;-87
2021/03/10 13:28:19;;;;;;;26.42;16.77;;;;;;;11.88;50.06;100595.53;5054131;28;20045;-90
2021/03/10 13:30:48;;;;;;;27.70;16.83;;;;;;;11.98;49.86;100595.91;5041937;28;20037;-85
2021/03/10 13:33:17;;;;;;;25.48;16.60;;;;;;;11.97;50.05;100592.41;5029005;28;20432;-83
2021/03/10 13:35:45;;;;;;;28.40;17.83;;;;;;;12.06;50.64;100588.44;5027078;28;20380;-84
2021/03/10 13:38:12;;;;;;;29.75;18.63;;;;;;;12.16;49.48;100579.94;5043619;28;20080;-85
2021/03/10 13:40:40;;;;;;;27.63;18.23;;;;;;;11.98;49.33;100590.63;5023346;28;20060;-85
2021/03/10 13:43:09;;;;;;;27.50;18.07;;;;;;;11.92;50.07;100589.13;5022259;28;20114;-84
2021/03/10 13:45:37;;;;;;;27.83;19.10;;;;;;;11.80;50.21;100576.47;5038427;28;20500;-84
2021/03/10 13:48:06;;;;;;;31.65;19.52;;;;;;;11.71;50.71;100574.22;5042719;28;20067;-85
2021/03/10 13:50:35;;;;;;;29.92;19.77;;;;;;;11.77;51.55;100579.28;5039908;28;20061;-84